createdAt,value
2023-01-09T00:02:09.602Z,9.14
2023-01-09T00:07:11.113Z,9.10
2023-01-09T00:12:13.800Z,9.14
2023-01-09T00:17:15.420Z,9.24
2023-01-09T00:22:19.026Z,9.23
2023-01-09T00:27:20.365Z,9.16
2023-01-09T00:32:22.386Z,9.14
2023-01-09T00:37:23.860Z,9.16
2023-01-09T00:42:29.942Z,9.14
2023-01-09T00:47:36.948Z,9.16
2023-01-09T00:52:39.852Z,9.16
2023-01-09T00:57:43.424Z,9.18
2023-01-09T01:02:45.103Z,9.15
2023-01-09T01:07:46.601Z,9.15
2023-01-09T01:12:49.180Z,9.20
2023-01-09T01:17:52.247Z,9.23
2023-01-09T01:22:53.569Z,9.27
2023-01-09T01:27:54.884Z,9.25
2023-01-09T01:32:56.677Z,9.25
2023-01-09T01:37:58.149Z,9.14
2023-01-09T01:43:04.506Z,9.10
2023-01-09T01:48:12.776Z,9.06
2023-01-09T01:53:24.332Z,9.19
2023-01-09T01:58:27.652Z,9.08
2023-01-09T02:03:29.733Z,9.10
2023-01-09T02:08:32.915Z,9.09
2023-01-09T02:13:41.480Z,9.17
2023-01-09T02:19:05.391Z,9.17
2023-01-09T02:24:32.567Z,9.22
2023-01-09T02:29:46.334Z,9.16
2023-01-09T02:35:16.593Z,9.09
2023-01-09T02:40:25.428Z,9.05
2023-01-09T02:45:27.737Z,9.06
2023-01-09T02:50:51.784Z,9.03
2023-01-09T02:56:06.045Z,9.05
2023-01-09T03:01:27.373Z,9.05
2023-01-09T03:06:39.033Z,9.07
2023-01-09T03:11:44.903Z,9.09
2023-01-09T03:16:49.892Z,9.01
2023-01-09T03:21:52.773Z,9.00
2023-01-09T03:26:57.290Z,9.01
2023-01-09T03:31:58.655Z,8.90
2023-01-09T03:37:00.100Z,8.80
2023-01-09T03:42:03.039Z,8.75
2023-01-09T03:47:04.483Z,8.65
2023-01-09T03:52:05.893Z,8.72
2023-01-09T03:57:07.376Z,8.63
2023-01-09T04:02:09.032Z,8.63
2023-01-09T04:07:10.927Z,8.54
2023-01-09T04:12:12.301Z,8.47
2023-01-09T04:17:16.550Z,8.56
2023-01-09T04:22:18.053Z,8.59
2023-01-09T04:27:19.584Z,8.56
2023-01-09T04:32:21.181Z,8.47
2023-01-09T04:37:23.629Z,8.59
2023-01-09T04:42:25.185Z,8.63
2023-01-09T04:47:26.998Z,8.57
2023-01-09T04:52:28.565Z,8.42
2023-01-09T04:57:29.978Z,8.43
2023-01-09T05:02:31.332Z,8.47
2023-01-09T05:07:33.327Z,8.36
2023-01-09T05:12:36.252Z,8.28
2023-01-09T05:17:39.295Z,8.35
2023-01-09T05:22:40.700Z,8.23
2023-01-09T05:27:46.130Z,8.30
2023-01-09T05:32:47.521Z,8.37
2023-01-09T05:37:49.112Z,8.37
2023-01-09T05:42:50.893Z,8.34
2023-01-09T05:47:52.307Z,8.33
2023-01-09T05:52:53.794Z,8.14
2023-01-09T05:57:55.221Z,8.23
2023-01-09T06:02:56.643Z,8.19
2023-01-09T06:07:58.088Z,8.16
2023-01-09T06:12:59.839Z,8.03
2023-01-09T06:18:01.249Z,7.97
2023-01-09T06:23:02.634Z,7.88
2023-01-09T06:28:04.256Z,7.89
2023-01-09T06:33:08.038Z,7.92
2023-01-09T06:38:09.425Z,8.02
2023-01-09T06:43:11.064Z,8.01
2023-01-09T06:48:12.919Z,8.02
2023-01-09T06:53:14.377Z,8.01
2023-01-09T06:58:16.327Z,8.02
2023-01-09T07:03:21.847Z,8.02
2023-01-09T07:08:23.420Z,8.05
2023-01-09T07:13:24.820Z,8.02
2023-01-09T07:18:26.297Z,8.04
2023-01-09T07:23:27.746Z,7.92
2023-01-09T07:28:30.377Z,7.98
2023-01-09T07:33:32.870Z,8.03
2023-01-09T07:38:36.778Z,8.01
2023-01-09T07:43:39.304Z,8.05
2023-01-09T07:48:40.750Z,8.05
2023-01-09T07:53:45.696Z,8.06
2023-01-09T07:58:47.416Z,8.06
2023-01-09T08:03:48.945Z,8.11
2023-01-09T08:08:50.684Z,8.14
2023-01-09T08:13:52.553Z,8.12
2023-01-09T08:18:54.122Z,8.03
2023-01-09T08:23:56.956Z,8.04
2023-01-09T08:28:58.556Z,8.09
2023-01-09T08:34:02.095Z,8.11
2023-01-09T08:39:03.788Z,8.00
2023-01-09T08:44:23.997Z,8.00
2023-01-09T08:49:25.818Z,8.00
2023-01-09T08:54:31.324Z,8.33
2023-01-09T08:59:33.210Z,8.46
2023-01-09T09:04:35.913Z,8.40
2023-01-09T09:09:37.427Z,8.55
2023-01-09T09:15:00.388Z,8.60
2023-01-09T09:20:05.529Z,8.60
2023-01-09T09:25:07.339Z,8.72
2023-01-09T09:30:11.022Z,8.63
2023-01-09T09:35:12.905Z,8.67
2023-01-09T09:40:23.144Z,8.52
2023-01-09T09:45:43.455Z,8.64
2023-01-09T09:51:09.851Z,8.59
2023-01-09T09:56:15.844Z,8.87
2023-01-09T10:01:26.288Z,8.93
2023-01-09T10:06:34.644Z,8.94
2023-01-09T10:11:55.060Z,9.07
2023-01-09T10:17:08.013Z,8.93
2023-01-09T10:22:26.707Z,8.76
2023-01-09T10:27:55.671Z,8.68
2023-01-09T10:33:18.894Z,8.85
2023-01-09T10:38:39.040Z,8.77
2023-01-09T10:43:53.222Z,9.31
2023-01-09T10:49:07.209Z,11.11
2023-01-09T10:54:14.583Z,11.15
2023-01-09T10:59:16.787Z,13.11
2023-01-09T11:04:25.926Z,11.48
2023-01-09T11:14:45.116Z,14.00
2023-01-09T11:20:07.861Z,12.42
2023-01-09T11:25:14.015Z,11.78
2023-01-09T11:30:29.139Z,12.01
2023-01-09T11:35:34.762Z,11.11
2023-01-09T11:46:28.354Z,17.81
2023-01-09T11:51:33.600Z,21.61
2023-01-09T11:56:36.881Z,20.50
2023-01-09T12:01:56.025Z,20.88
2023-01-09T12:07:09.564Z,21.57
2023-01-09T12:12:23.024Z,19.07
2023-01-09T12:17:44.730Z,17.97
2023-01-09T12:23:00.970Z,14.15
2023-01-09T12:28:13.576Z,12.19
2023-01-09T12:33:37.745Z,11.61
2023-01-09T12:38:48.940Z,11.14
2023-01-09T12:44:34.095Z,10.67
2023-01-09T12:49:42.480Z,10.75
2023-01-09T12:54:49.943Z,10.75
2023-01-09T12:59:56.237Z,10.59
2023-01-09T13:05:08.259Z,10.94
2023-01-09T13:10:30.867Z,10.65
2023-01-09T13:16:11.564Z,10.95
2023-01-09T13:21:14.480Z,10.36
2023-01-09T13:26:25.714Z,10.20
2023-01-09T13:31:51.126Z,10.25
2023-01-09T13:36:56.011Z,10.24
2023-01-09T13:42:18.691Z,10.22
2023-01-09T13:47:25.279Z,9.98
2023-01-09T13:52:37.203Z,9.76
2023-01-09T13:57:43.730Z,10.36
2023-01-09T14:02:49.725Z,10.69
2023-01-09T14:08:03.158Z,10.35
2023-01-09T14:13:14.814Z,10.38
2023-01-09T14:18:25.286Z,10.13
2023-01-09T14:23:50.944Z,9.86
2023-01-09T14:29:29.070Z,9.76
2023-01-09T14:34:37.336Z,9.59
2023-01-09T14:39:44.562Z,9.48
2023-01-09T14:44:50.849Z,9.37
2023-01-09T14:49:58.974Z,9.18
2023-01-09T14:55:03.939Z,9.10
2023-01-09T15:00:17.332Z,8.98
2023-01-09T15:05:25.287Z,9.01
2023-01-09T15:10:30.839Z,8.98
2023-01-09T15:15:32.333Z,8.96
2023-01-09T15:20:35.174Z,8.76
2023-01-09T15:25:39.664Z,8.83
2023-01-09T15:30:43.438Z,8.79
2023-01-09T15:35:47.527Z,8.84
2023-01-09T15:40:54.444Z,8.80
2023-01-09T15:45:57.267Z,8.82
2023-01-09T15:51:04.217Z,8.72
2023-01-09T15:56:23.888Z,8.61
2023-01-09T16:01:29.871Z,8.58
2023-01-09T16:06:36.336Z,8.44
2023-01-09T16:11:38.849Z,8.45
2023-01-09T16:16:42.041Z,8.53
2023-01-09T16:21:43.534Z,8.30
2023-01-09T16:26:45.025Z,8.36
2023-01-09T16:31:47.227Z,8.32
2023-01-09T16:36:48.694Z,8.34
2023-01-09T16:42:08.666Z,8.35
2023-01-09T16:47:12.123Z,8.26
2023-01-09T16:52:16.517Z,8.32
2023-01-09T16:57:18.817Z,8.38
2023-01-09T17:02:20.711Z,8.31
2023-01-09T17:07:26.622Z,8.22
2023-01-09T17:12:28.059Z,8.17
2023-01-09T17:17:30.914Z,8.19
2023-01-09T17:22:32.290Z,8.22
2023-01-09T17:27:56.047Z,8.27
2023-01-09T17:32:57.710Z,8.34
2023-01-09T17:37:59.201Z,8.31
2023-01-09T17:43:00.567Z,8.32
2023-01-09T17:48:02.118Z,8.29
2023-01-09T17:53:03.506Z,8.19
2023-01-09T17:58:05.073Z,8.03
2023-01-09T18:03:07.975Z,7.95
2023-01-09T18:08:13.240Z,7.85
2023-01-09T18:13:16.093Z,7.96
2023-01-09T18:18:17.493Z,7.98
2023-01-09T18:23:19.643Z,7.95
2023-01-09T18:28:21.070Z,7.91
2023-01-09T18:33:23.849Z,7.94
2023-01-09T18:38:25.412Z,7.96
2023-01-09T18:43:26.906Z,7.87
2023-01-09T18:48:28.260Z,7.72
2023-01-09T18:53:30.072Z,7.69
2023-01-09T18:58:33.794Z,7.68
2023-01-09T19:03:35.334Z,7.49
2023-01-09T19:08:36.950Z,7.43
2023-01-09T19:13:38.789Z,7.50
2023-01-09T19:18:41.911Z,7.51
2023-01-09T19:23:44.405Z,7.57
2023-01-09T19:28:48.203Z,7.57
2023-01-09T19:33:50.566Z,7.51
2023-01-09T19:38:59.804Z,7.47
2023-01-09T19:44:02.091Z,7.34
2023-01-09T19:49:05.172Z,7.38
2023-01-09T19:59:08.401Z,7.30
2023-01-09T20:04:17.237Z,7.28
2023-01-09T20:09:27.384Z,7.29
2023-01-09T20:14:31.888Z,7.27
2023-01-09T20:19:33.366Z,7.25
2023-01-09T20:24:35.074Z,7.13
2023-01-09T20:29:36.652Z,7.15
2023-01-09T20:34:40.398Z,7.04
2023-01-09T20:39:42.203Z,6.94
2023-01-09T20:44:43.621Z,6.98
2023-01-09T20:49:45.138Z,6.97
2023-01-09T20:54:46.596Z,6.91
2023-01-09T20:59:50.151Z,6.89
2023-01-09T21:04:53.279Z,6.97
2023-01-09T21:09:55.934Z,6.95
2023-01-09T21:15:02.081Z,6.98
2023-01-09T21:20:08.170Z,7.00
2023-01-09T21:25:11.384Z,6.92
2023-01-09T21:30:13.270Z,6.91
2023-01-09T21:35:16.881Z,6.87
2023-01-09T21:40:18.375Z,6.93
2023-01-09T21:45:38.493Z,6.87
2023-01-09T21:50:43.118Z,6.80
2023-01-09T21:55:45.879Z,6.85
2023-01-09T22:00:47.459Z,6.87
2023-01-09T22:05:48.824Z,6.94
2023-01-09T22:10:58.156Z,6.93
2023-01-09T22:16:04.798Z,6.92
2023-01-09T22:21:06.363Z,6.85
2023-01-09T22:26:13.043Z,6.77
2023-01-09T22:31:18.437Z,6.80
2023-01-09T22:36:20.140Z,6.86
2023-01-09T22:41:22.753Z,6.80
2023-01-09T22:46:24.623Z,6.86
2023-01-09T22:51:26.034Z,6.87
2023-01-09T22:56:27.674Z,6.88
2023-01-09T23:01:29.431Z,6.87
2023-01-09T23:06:31.341Z,7.00
2023-01-09T23:11:51.165Z,7.18
2023-01-09T23:16:54.935Z,7.11
2023-01-09T23:21:56.573Z,7.14
2023-01-09T23:26:58.251Z,7.23
2023-01-09T23:32:01.106Z,7.25
2023-01-09T23:37:04.004Z,7.12
2023-01-09T23:42:25.166Z,7.08
2023-01-09T23:47:29.332Z,7.05
2023-01-09T23:52:31.346Z,7.02
2023-01-09T23:57:32.775Z,6.98
